Entebbe International Airport Kampala UG
ICAO: HUEN
IATA: EBB
Category: Medium
Scheduled Services: Yes

Elevation: 3782 ft
TransAlt. 7000 ft.

Airport Communications:
ENTEBBE RADAR CONTROL:126.6
EBB AREA CONTROL:128.5
TWR:118.1

HUEN Zoom In..

If you have problems with the map follow the link
https://www.worldairports.se/pages/airport.php?
ICAO=HUEN

Runways:

(A) RW 12 length 7874 ft width 148 ft
---- / hdg 120

(B) RW 17 length 12001 ft width 148 ft
ILS 110.70 / hdg 171

(C) RW 30 length 7874 ft width 148 ft
---- / hdg 300

(D) RW 35 length 12001 ft width 148 ft
---- / hdg 351

Location; HUEN
Day. 25 / Time. 23.00 Zulu
* QNH: 1017
* Temperature: 22° c. 71.6°f.
* Wind from: 000° Speed 00 kn.
Dewpoint: 21° c.
Visibility: 9000 m.
Clouds: Scattered 12000 ft.

HUEN 252300Z 00000KT 9000 SCT120 22/21 Q1017


Wind - Calm.

 
 
jpsmedia worldairports.se 2020   terms of use